Tapachula, Mexico

5:32 PM CDT on July 29, 2016 (GMT -0500)
Retalhuleu | | Change Station

Elev 784 ft 14.53 °N, 91.67 °W | Updated 32 minutes ago

Thunderstorm
Thunderstorm
90 °F
Feels Like 96 °F
N
7
Wind Variable Wind from SW

Today
High -- | Low -- °F
--% Chance of Precip.
Yesterday
High -- | Low -- °F
Precip. -- in
Pressure 29.89 in
Visibility 5.0 miles
Clouds Scattered Clouds 2000 ft
Few 2500 ft
Mostly Cloudy 8000 ft
Heat Index 96 °F
Dew Point 72 °F
Humidity 55%
Rainfall 0.00 in
Snow Depth Not available.
6:51 AM 7:39 PM
Waning Crescent, 18% visible
METAR MGRT 292200Z 22006KT 8000 TS VC SH SCT020 FEW025CB BKN080 32/22 Q1012 A2988 CB/TS/PCPN/NE/E VOL. STA. MARIA Y SANTIAGUITO EN ACTIVIDAD
Pressure 29.89 in
Visibility 5.0 miles
Clouds Scattered Clouds 2000 ft
Few 2500 ft
Mostly Cloudy 8000 ft
Heat Index 96 °F
Dew Point 72 °F
Humidity 55%
Rainfall 0.00 in
Snow Depth Not available.
6:51 AM 7:39 PM
Waning Crescent, 18% visible
METAR MGRT 292200Z 22006KT 8000 TS VC SH SCT020 FEW025CB BKN080 32/22 Q1012 A2988 CB/TS/PCPN/NE/E VOL. STA. MARIA Y SANTIAGUITO EN ACTIVIDAD

10-Day Weather Forecast

No radar image for this location.
×

Almanac

Astronomy

Jul. 29, 2016 Rise Set
Actual Time
Civil Twilight
Nautical Twilight
Astronomical Twilight
Moon
Length of Visible Light
Length of Day
Tomorrow will be .
, % of the Moon is Illuminated

Today's Extremes

Country Highs Country Lows

Community

WunderPhotos

Upload Photos

1,928,436 photos uploaded!

WunderBlog® & News

Nearby

Air Quality

  Air Quality AQ Index Pollutant
Not available.

Snow Depth

Station Depth Elevation

Earthquake Activity

City Distance Mag. Time & Date
Minimum magnitude displayed is 2.5.

Coastal Water Temperatures

Place Temperature

Stations

Nearby Weather Stations

Station Location Temp. Windchill Dew Point Humidity Wind Precip. Elev Updated Type